Flight Track Log - Related Links

Times and Time Zones

All times are in EDT time to prevent confusion due to time zone crossing. See the N105WC flight status page for this flight to view local times or setup timezone preferences in your user account.

Time Position Orientation Groundspeed Altitude Reporting Facility
EDT Latitude Longitude Course Direction KTS MPH feet Rate Location/Type
Thu 07:06:49 PM 45.2867 -122.7597 74° East 194 223 1,400  Level Seattle Center
Thu 07:07:50 PM 45.3014 -122.6831 75° East 215 247 3,800 1,565 Climbing Seattle Center
Thu 07:08:44 PM 45.2833 -122.6044 108° East 234 269 4,400 1,096 Climbing Seattle Center
Thu 07:09:45 PM 45.3164 -122.5328 57° Northeast 224 258 5,900 1,759 Climbing Seattle Center
Thu 07:10:40 PM 45.3592 -122.4658 48° Northeast 264 304 7,800 1,909 Climbing Seattle Center
Thu 07:11:00 PM 45.4749 -121.6972 73° East  Level Estimated
Thu 07:11:13 PM 45.3814 -122.4275 50° Northeast 265 305 8,700  Level Seattle Center
Thu 07:12:00 PM 45.5119 -121.5175 74° East  Level Estimated
Thu 07:12:15 PM 45.4375 -122.3425 47° Northeast 292 336 10,800  Level Seattle Center
Thu 07:13:16 PM 45.5000 -122.2481 47° Northeast 324 373 12,000 1,328 Climbing Seattle Center
Thu 07:14:17 PM 45.5733 -122.1425 45° Northeast 370 426 13,500 1,672 Climbing Seattle Center
Thu 07:15:18 PM 45.6372 -121.9881 59° Northeast 385 443 15,400 1,672 Climbing Seattle Center
Thu 07:16:19 PM 45.6647 -121.8308 76° East 396 456 16,900 1,574 Climbing Seattle Center
Thu 07:17:20 PM 45.6939 -121.6742 75° East 405 466 18,600 1,610 Climbing Seattle Center
Thu 07:18:22 PM 45.7219 -121.5228 75° East 397 457 20,200 1,317 Climbing Seattle Center
Thu 07:19:23 PM 45.7514 -121.3636 75° East 411 473 21,300 1,180 Climbing Seattle Center
Thu 07:20:24 PM 45.7828 -121.2003 75° East 424 488 22,600 1,328 Climbing Seattle Center
Thu 07:21:25 PM 45.8128 -121.0342 75° East 431 496 24,000 1,328 Climbing Seattle Center
Thu 07:22:26 PM 45.8436 -120.8658 75° East 436 502 25,300 1,131 Climbing Seattle Center
Thu 07:23:27 PM 45.8742 -120.6978 75° East 436 502 26,300 1,024 Climbing Seattle Center
Thu 07:24:29 PM 45.9064 -120.5256 75° East 445 512 27,400 1,073 Climbing Seattle Center
Thu 07:25:30 PM 45.9356 -120.3533 76° East 444 511 28,500 1,033 Climbing Seattle Center
Thu 07:26:31 PM 45.9650 -120.1819 76° East 443 510 29,500 885 Climbing Seattle Center
Thu 07:27:32 PM 46.0025 -119.9722 75° East 450 518 30,300 738 Climbing Seattle Center
Thu 07:28:33 PM 46.0325 -119.7950 76° East 455 524 31,000 732 Climbing Seattle Center
Thu 07:29:35 PM 46.0633 -119.6139 76° East 462 532 31,800 683 Climbing Seattle Center
Thu 07:30:36 PM 46.0936 -119.4306 77° East 469 540 32,400 639 Climbing Seattle Center
Thu 07:31:37 PM 46.1247 -119.2481 76° East 470 541 33,100 689 Climbing Seattle Center
Thu 07:32:38 PM 46.1558 -119.0692 76° East 464 534 33,800 689 Climbing Seattle Center
Thu 07:33:39 PM 46.1850 -118.8850 77° East 470 541 34,500 634 Climbing Seattle Center
Thu 07:34:41 PM 46.2150 -118.7031 77° East 467 537 35,100 634 Climbing Seattle Center
Thu 07:35:42 PM 46.2481 -118.5036 76° East 469 540 35,800 590 Climbing Seattle Center
Thu 07:36:43 PM 46.2769 -118.3197 77° East 471 542 36,300 541 Climbing Seattle Center
Thu 07:37:44 PM 46.3047 -118.1358 78° East 470 541 36,900 590 Climbing Seattle Center
Thu 07:38:45 PM 46.3333 -117.9536 77° East 467 537 37,500 537 Climbing Seattle Center
Thu 07:39:47 PM 46.3614 -117.7719 77° East 465 535 38,000 537 Climbing Seattle Center
Thu 07:40:48 PM 46.3892 -117.5886 78° East 468 539 38,600 492 Climbing Seattle Center
Thu 07:41:49 PM 46.4153 -117.4111 78° East 459 528 39,000 197 Climbing Seattle Center
Thu 07:42:50 PM 46.4417 -117.2275 78° East 465 535 39,000  Level Seattle Center
Thu 07:43:51 PM 46.4742 -117.0039 78° East 474 545 39,000  Level Seattle Center
Thu 07:44:52 PM 46.5019 -116.8089 78° East 492 566 39,000  Level Seattle Center
Thu 07:45:54 PM 46.5292 -116.6172 78° East 489 563 39,000  Level Seattle Center
Thu 07:46:55 PM 46.5558 -116.4242 79° East 491 565 39,000  Level Seattle Center
Thu 07:47:56 PM 46.5828 -116.2267 79° East 497 572 39,000  Level Seattle Center
Thu 07:48:57 PM 46.6097 -116.0300 79° East 499 574 39,000  Level Seattle Center
Thu 07:49:58 PM 46.6367 -115.8319 79° East 502 578 39,000  Level Seattle Center
Thu 07:51:00 PM 46.6628 -115.6331 79° East 503 579 39,000  Level Seattle Center
Thu 07:51:44 PM 46.6850 -115.4658 79° East 503 579 39,000  Level Salt Lake Center
Thu 07:52:46 PM 46.7106 -115.2678 79° East 503 579 39,000  Level Salt Lake Center
Thu 07:53:48 PM 46.7358 -115.0678 79° East 505 581 39,000  Level Salt Lake Center
Thu 07:54:50 PM 46.7611 -114.8681 79° East 505 581 39,000  Level Salt Lake Center
Thu 07:55:52 PM 46.7906 -114.6292 80° East 503 579 39,000  Level Salt Lake Center
Thu 07:56:54 PM 46.8144 -114.4311 80° East 501 577 39,000  Level Salt Lake Center
Thu 07:57:56 PM 46.8375 -114.2328 80° East 499 574 39,000  Level Salt Lake Center
Thu 07:58:58 PM 46.8617 -114.0289 80° East 509 586 39,000  Level Salt Lake Center
Thu 08:00:00 PM 46.8850 -113.8269 80° East 508 585 39,000  Level Salt Lake Center
Thu 08:01:04 PM 46.9125 -113.5897 80° East 497 572 39,000  Level Salt Lake Center
Thu 08:02:05 PM 46.9350 -113.3900 81° East 498 573 39,000  Level Salt Lake Center
Thu 08:03:07 PM 46.9567 -113.1894 81° East 502 578 39,000  Level Salt Lake Center
Thu 08:04:09 PM 46.9797 -112.9897 80° East 500 575 39,000  Level Salt Lake Center
Thu 08:05:11 PM 47.0017 -112.7650 82° East 504 580 39,000  Level Salt Lake Center
Thu 08:06:13 PM 47.0233 -112.5639 81° East 503 579 39,000  Level Salt Lake Center
Thu 08:07:15 PM 47.0444 -112.3633 81° East 501 577 39,000  Level Salt Lake Center
Thu 08:08:17 PM 47.0642 -112.1611 82° East 504 580 39,000  Level Salt Lake Center
Thu 08:09:19 PM 47.0883 -111.9181 82° East 506 582 39,000  Level Salt Lake Center
Thu 08:10:21 PM 47.1078 -111.7153 82° East 505 581 39,000  Level Salt Lake Center
Thu 08:11:23 PM 47.1267 -111.5122 82° East 507 583 39,000  Level Salt Lake Center
Thu 08:12:25 PM 47.1444 -111.3081 83° East 509 586 39,000  Level Salt Lake Center
Thu 08:13:27 PM 47.1642 -111.1058 82° East 508 585 39,000  Level Salt Lake Center
Thu 08:14:29 PM 47.1861 -110.8625 82° East 507 583 39,000  Level Salt Lake Center
Thu 08:15:30 PM 47.2028 -110.6606 83° East 503 579 39,000  Level Salt Lake Center
Thu 08:16:32 PM 47.2206 -110.4586 83° East 504 580 39,000  Level Salt Lake Center
Thu 08:17:34 PM 47.2372 -110.2558 83° East 503 579 39,000  Level Salt Lake Center
Thu 08:18:36 PM 47.2531 -110.0514 83° East 505 581 39,000  Level Salt Lake Center
Thu 08:19:38 PM 47.2703 -109.8467 83° East 506 582 39,000  Level Salt Lake Center
Thu 08:20:40 PM 47.2889 -109.6003 84° East 508 585 39,000  Level Salt Lake Center
Thu 08:21:42 PM 47.3036 -109.3944 84° East 507 583 39,000  Level Salt Lake Center
Thu 08:22:44 PM 47.3189 -109.1894 84° East 507 583 39,000  Level Salt Lake Center
Thu 08:23:46 PM 47.3328 -108.9822 84° East 509 586 39,000  Level Salt Lake Center
Thu 08:24:48 PM 47.3486 -108.7747 83° East 511 588 39,000  Level Salt Lake Center
Thu 08:25:49 PM 47.3644 -108.5669 84° East 512 589 39,000  Level Salt Lake Center
Thu 08:26:51 PM 47.3797 -108.3164 85° East 513 590 39,000  Level Salt Lake Center
Thu 08:27:53 PM 47.3950 -108.1072 84° East 513 590 39,000  Level Salt Lake Center
Thu 08:28:55 PM 47.4064 -107.8992 85° East 513 590 39,000  Level Salt Lake Center
Thu 08:29:57 PM 47.4186 -107.6906 85° East 512 589 39,000  Level Salt Lake Center
Thu 08:30:59 PM 47.4328 -107.4817 84° East 513 590 39,000  Level Salt Lake Center
Thu 08:32:01 PM 47.4436 -107.2528 86° East 514 592 39,000  Level Salt Lake Center
Thu 08:33:03 PM 47.4564 -107.0444 85° East 512 589 39,000  Level Salt Lake Center
Thu 08:34:05 PM 47.4658 -106.8344 86° East 514 592 39,000  Level Salt Lake Center
Thu 08:35:07 PM 47.4781 -106.6250 85° East 513 590 39,000  Level Salt Lake Center
Thu 08:36:09 PM 47.4894 -106.3725 86° East 514 592 39,000  Level Salt Lake Center
Thu 08:37:11 PM 47.4986 -106.1608 86° East 516 594 39,000  Level Salt Lake Center
Thu 08:38:13 PM 47.5086 -105.9489 86° East 518 596 39,000  Level Salt Lake Center
Thu 08:39:15 PM 47.5189 -105.7381 86° East 517 595 39,000  Level Salt Lake Center
Thu 08:40:17 PM 47.5269 -105.5261 87° East 517 595 39,000  Level Salt Lake Center
Thu 08:41:19 PM 47.5339 -105.3131 87° East 519 597 39,000  Level Salt Lake Center
Thu 08:43:00 PM 47.5391 -104.9883 89° East  Level FlightAware Approximate
Thu 08:44:24 PM 47.5583 -104.6297 89° East 522 601 39,000  Level Salt Lake Center
Thu 08:45:26 PM 47.5667 -104.4164 87° East 522 601 39,000  Level Salt Lake Center
Thu 08:46:28 PM 47.5728 -104.2028 87° East 522 601 39,000  Level Salt Lake Center
Thu 08:47:30 PM 47.5786 -103.9492 88° East 521 600 39,000  Level Salt Lake Center
Thu 08:48:32 PM 47.5817 -103.7486 89° East 522 601 39,000  Level Salt Lake Center
Thu 08:49:34 PM 47.5906 -103.5233 87° East 533 613 39,000  Level Salt Lake Center
Thu 08:50:36 PM 47.5967 -103.3097 87° East 531 611 39,000  Level Salt Lake Center
Thu 08:51:38 PM 47.6017 -103.0969 88° East 526 605 39,000  Level Salt Lake Center
Thu 08:52:40 PM 47.6075 -102.8386 88° East 524 603 39,000  Level Salt Lake Center
Thu 08:53:48 PM 47.6117 -102.6244 88° East 527 606 39,000  Level Minneapolis Center
Thu 08:54:50 PM 47.6150 -102.3642 89° East 528 608 39,000  Level Minneapolis Center
Thu 08:55:53 PM 47.6183 -102.1483 89° East 525 604 39,000  Level Minneapolis Center
Thu 08:56:55 PM 47.6194 -101.9331 89° East 525 604 39,000  Level Minneapolis Center
Thu 08:57:57 PM 47.6214 -101.7181 89° East 523 602 39,000  Level Minneapolis Center
Thu 08:58:59 PM 47.6239 -101.5008 89° East 526 605 39,000  Level Minneapolis Center
Thu 09:00:01 PM 47.6258 -101.2844 89° East 526 605 39,000  Level Minneapolis Center
Thu 09:01:03 PM 47.6267 -101.0253 90° East 524 603 39,000  Level Minneapolis Center
Thu 09:02:05 PM 47.6253 -100.8028 90° East 529 609 39,000  Level Minneapolis Center
Thu 09:03:07 PM 47.6253 -100.5856 90° East 528 608 39,000  Level Minneapolis Center
Thu 09:04:09 PM 47.6253 -100.3672 90° East 529 609 39,000  Level Minneapolis Center
Thu 09:05:11 PM 47.6206 -100.1508 92° East 527 606 39,000  Level Minneapolis Center
Thu 09:06:13 PM 47.6181 -99.9311 91° East 533 613 39,000  Level Minneapolis Center
Thu 09:07:15 PM 47.6156 -99.6669 91° East 537 618 39,000  Level Minneapolis Center
Thu 09:08:17 PM 47.6133 -99.4475 91° East 535 616 39,000  Level Minneapolis Center
Thu 09:09:20 PM 47.6100 -99.2278 91° East 535 616 39,000  Level Minneapolis Center
Thu 09:10:22 PM 47.6064 -99.0081 91° East 535 616 39,000  Level Minneapolis Center
Thu 09:11:24 PM 47.6025 -98.7889 91° East 535 616 39,000  Level Minneapolis Center
Thu 09:12:26 PM 47.5989 -98.5689 91° East 534 615 39,000  Level Minneapolis Center
Thu 09:13:28 PM 47.5933 -98.3067 92° East 533 613 39,000  Level Minneapolis Center
Thu 09:14:30 PM 47.5886 -98.0869 92° East 533 613 39,000  Level Minneapolis Center
Thu 09:15:32 PM 47.5844 -97.8931 92° East 533 613 39,000  Level Minneapolis Center
Thu 09:16:34 PM 47.5772 -97.6314 92° East 535 616 39,000  Level Minneapolis Center
Thu 09:17:36 PM 47.5703 -97.4136 93° East 531 611 39,000  Level Minneapolis Center
Thu 09:18:38 PM 47.5639 -97.1981 92° East 527 606 39,000  Level Minneapolis Center
Thu 09:19:40 PM 47.5569 -96.9833 93° East 525 604 39,000  Level Minneapolis Center
Thu 09:20:42 PM 47.5497 -96.7683 93° East 524 603 39,000  Level Minneapolis Center
Thu 09:21:44 PM 47.5419 -96.5539 93° East 524 603 39,000  Level Minneapolis Center
Thu 09:22:46 PM 47.5317 -96.2969 93° East 523 602 39,000  Level Minneapolis Center
Thu 09:23:49 PM 47.5217 -96.0847 94° East 520 598 39,000  Level Minneapolis Center
Thu 09:24:51 PM 47.5144 -95.8719 93° East 520 598 39,000  Level Minneapolis Center
Thu 09:25:53 PM 47.5036 -95.6336 94° East 525 604 39,000  Level Minneapolis Center
Thu 09:26:55 PM 47.4936 -95.4206 94° East 522 601 39,000  Level Minneapolis Center
Thu 09:27:56 PM 47.4844 -95.2497 94° East 521 600 39,000  Level Minneapolis Center
Thu 09:28:59 PM 47.4717 -94.9944 94° East 522 601 39,000  Level Minneapolis Center
Thu 09:30:00 PM 47.4631 -94.8239 94° East 522 601 39,000  Level Minneapolis Center
Thu 09:31:03 PM 47.4489 -94.5706 95° East 518 596 39,000  Level Minneapolis Center
Thu 09:32:05 PM 47.4347 -94.3189 95° East 515 593 39,000  Level Minneapolis Center
Thu 09:33:07 PM 47.4231 -94.1111 95° East 512 589 39,000  Level Minneapolis Center
Thu 09:34:09 PM 47.4111 -93.9050 95° East 508 585 39,000  Level Minneapolis Center
Thu 09:35:10 PM 47.3978 -93.7011 95° East 504 580 39,000  Level Minneapolis Center
Thu 09:36:12 PM 47.3847 -93.4953 95° East 505 581 39,000  Level Minneapolis Center
Thu 09:37:14 PM 47.3731 -93.3344 96° East 502 578 39,000  Level Minneapolis Center
Thu 09:38:28 PM 47.3547 -93.0403 95° East 502 578 39,000  Level Minneapolis Center
Thu 09:39:30 PM 47.3389 -92.8147 96° East 509 586 39,000  Level Minneapolis Center
Thu 09:40:32 PM 47.3258 -92.6169 95° East 495 570 39,000  Level Minneapolis Center
Thu 09:41:34 PM 47.3078 -92.3744 96° East 498 573 39,000  Level Minneapolis Center
Thu 09:42:36 PM 47.2933 -92.1706 96° East 501 577 39,000  Level Minneapolis Center
Thu 09:43:38 PM 47.2786 -91.9700 96° East 498 573 39,000  Level Minneapolis Center
Thu 09:44:39 PM 47.2631 -91.7681 96° East 497 572 39,000  Level Minneapolis Center
Thu 09:45:41 PM 47.2478 -91.5667 96° East 496 571 39,000  Level Minneapolis Center
Thu 09:46:43 PM 47.2314 -91.3683 97° East 493 567 39,000  Level Minneapolis Center
Thu 09:47:45 PM 47.2108 -91.1683 99° East 494 568 39,000  Level Minneapolis Center
Thu 09:48:46 PM 47.1917 -90.9308 97° East 492 566 39,000  Level Minneapolis Center
Thu 09:49:48 PM 47.1739 -90.7325 97° East 491 565 39,000  Level Minneapolis Center
Thu 09:50:50 PM 47.1558 -90.5358 98° East 488 562 39,000  Level Minneapolis Center
Thu 09:51:51 PM 47.1394 -90.3514 97° East 485 558 39,000  Level Minneapolis Center
Thu 09:52:53 PM 47.1172 -90.1164 98° East 484 557 39,000  Level Minneapolis Center
Thu 09:53:55 PM 47.0994 -89.9208 98° East 481 554 39,000  Level Minneapolis Center
Thu 09:54:56 PM 47.0792 -89.7272 99° East 479 551 39,000  Level Minneapolis Center
Thu 09:56:10 PM 47.0614 -89.5311 98° East 482 555 39,000  Level Minneapolis Center
Thu 09:57:12 PM 47.0364 -89.2986 99° East 479 551 39,000  Level Minneapolis Center
Thu 09:58:13 PM 47.0169 -89.1050 98° East 478 550 39,000  Level Minneapolis Center
Thu 09:59:15 PM 46.9964 -88.9117 99° East 477 549 39,000  Level Minneapolis Center
Thu 10:00:17 PM 46.9758 -88.7197 99° East 474 545 39,000  Level Minneapolis Center
Thu 10:01:18 PM 46.9556 -88.5275 99° East 474 545 39,000  Level Minneapolis Center
Thu 10:02:20 PM 46.9303 -88.2964 99° East 478 550 39,000  Level Minneapolis Center
Thu 10:03:22 PM 46.9083 -88.1047 99° East 478 550 39,000  Level Minneapolis Center
Thu 10:04:23 PM 46.8867 -87.9128 99° East 477 549 39,000  Level Minneapolis Center
Thu 10:05:25 PM 46.8636 -87.7211 100° East 479 551 39,000  Level Minneapolis Center
Thu 10:06:26 PM 46.8425 -87.5422 100° East 479 551 39,000  Level Minneapolis Center
Thu 10:07:28 PM 46.8200 -87.3514 100° East 478 550 39,000  Level Minneapolis Center
Thu 10:08:29 PM 46.7931 -87.1208 100° East 479 551 39,000  Level Minneapolis Center
Thu 10:09:31 PM 46.7683 -86.9297 101° East 480 552 39,000  Level Minneapolis Center
Thu 10:10:33 PM 46.7450 -86.7406 100° East 477 549 39,000  Level Minneapolis Center
Thu 10:11:34 PM 46.7206 -86.5475 100° East 481 554 39,000  Level Minneapolis Center
Thu 10:12:36 PM 46.6953 -86.3556 101° East 482 555 39,000  Level Minneapolis Center
Thu 10:13:37 PM 46.6706 -86.1650 101° East 481 554 39,000  Level Minneapolis Center
Thu 10:14:39 PM 46.6461 -85.9736 100° East 481 554 39,000  Level Minneapolis Center
Thu 10:15:41 PM 46.6208 -85.7844 101° East 478 550 39,000  Level Minneapolis Center
Thu 10:16:42 PM 46.5953 -85.5956 101° East 477 549 39,000  Level Minneapolis Center
Thu 10:17:44 PM 46.5636 -85.3661 101° East 480 552 39,000  Level Minneapolis Center
Thu 10:18:45 PM 46.5372 -85.1775 101° East 480 552 39,000  Level Minneapolis Center
Thu 10:19:47 PM 46.5094 -84.9842 102° East 484 557 39,000  Level Minneapolis Center
Thu 10:21:02 PM 46.4500 -84.7167 108° East 480 552 39,000  Level Toronto Center
Thu 10:22:02 PM 46.4333 -84.5500 98° East 470 541 39,000  Level Toronto Center
Thu 10:23:02 PM 46.4000 -84.3500 104° East 500 575 39,000  Level Toronto Center
Thu 10:24:02 PM 46.3833 -84.1500 97° East 480 552 39,000  Level Toronto Center
Thu 10:25:02 PM 46.3667 -83.9500 97° East 480 552 39,000  Level Toronto Center
Thu 10:26:02 PM 46.3667 -83.7667 90° East 480 552 39,000  Level Toronto Center
Thu 10:27:02 PM 46.3333 -83.5667 104° East 480 552 39,000  Level Toronto Center
Thu 10:28:02 PM 46.3167 -83.3667 97° East 490 564 39,000  Level Toronto Center
Thu 10:29:02 PM 46.3167 -83.1833 90° East 490 564 39,000  Level Toronto Center
Thu 10:30:02 PM 46.2833 -82.9833 103° East 490 564 39,000  Level Toronto Center
Thu 10:31:02 PM 46.2667 -82.8167 98° East 490 564 39,000  Level Toronto Center
Thu 10:32:02 PM 46.2500 -82.6000 96° East 490 564 39,000  Level Toronto Center
Thu 10:33:02 PM 46.2333 -82.4333 98° East 480 552 39,000  Level Toronto Center
Thu 10:34:02 PM 46.2000 -82.2333 103° East 480 552 39,000  Level Toronto Center
Thu 10:35:02 PM 46.1833 -82.0333 97° East 480 552 39,000  Level Toronto Center
Thu 10:36:02 PM 46.1833 -81.8167 90° East 480 552 39,000  Level Toronto Center
Thu 10:37:02 PM 46.1500 -81.6500 106° East 490 564 39,000  Level Toronto Center
Thu 10:38:02 PM 46.1333 -81.4667 97° East 490 564 39,000  Level Toronto Center
Thu 10:39:02 PM 46.1000 -81.2667 103° East 490 564 39,000  Level Toronto Center
Thu 10:40:02 PM 46.0833 -81.0667 97° East 480 552 39,000  Level Toronto Center
Thu 10:41:02 PM 46.0833 -80.8833 90° East 490 564 39,000  Level Toronto Center
Thu 10:42:02 PM 46.0500 -80.6833 103° East 480 552 39,000  Level Toronto Center
Thu 10:43:02 PM 46.0333 -80.5000 97° East 490 564 39,000  Level Toronto Center
Thu 10:44:02 PM 46.0000 -80.3000 103° East 490 564 39,000  Level Toronto Center
Thu 10:45:02 PM 45.9833 -80.1167 97° East 480 552 39,000  Level Toronto Center
Thu 10:46:02 PM 45.9667 -79.9167 97° East 480 552 39,000  Level Toronto Center
Thu 10:47:02 PM 45.9333 -79.7333 105° East 480 552 39,000  Level Toronto Center
Thu 10:48:03 PM 45.9167 -79.5333 97° East 480 552 39,000  Level Toronto Center
Thu 10:49:02 PM 45.8833 -79.3500 105° East 480 552 39,000  Level Toronto Center
Thu 10:50:02 PM 45.8667 -79.1833 98° East 480 552 39,000  Level Toronto Center
Thu 10:51:02 PM 45.8500 -78.9667 96° East 480 552 39,000 -250 Level Toronto Center
Thu 10:52:02 PM 45.8167 -78.8000 106° East 480 552 38,500 -1,150 Descending Toronto Center
Thu 10:53:02 PM 45.8000 -78.6000 97° East 490 564 36,700 -1,950 Descending Toronto Center
Thu 10:54:02 PM 45.7500 -78.3833 108° East 500 575 34,600 -2,250 Descending Toronto Center
Thu 10:55:02 PM 45.7333 -78.2167 98° East 500 575 32,200 -2,700 Descending Toronto Center
Thu 10:56:02 PM 45.7167 -78.0000 96° East 500 575 29,200 -2,500 Descending Toronto Center
Thu 10:57:02 PM 45.6833 -77.8167 105° East 490 564 27,200 -2,250 Descending Toronto Center
Thu 10:58:02 PM 45.6667 -77.6333 97° East 470 541 24,700 -2,600 Descending Toronto Center
Thu 10:59:02 PM 45.6333 -77.4667 106° East 450 518 22,000 -2,633 Descending Toronto Center
Thu 10:59:40 PM 45.6000 -77.3833 120° Southeast 450 518 20,400 -2,755 Descending Montreal Center
Thu 11:00:40 PM 45.5667 -77.2333 108° East 440 506 17,500 -2,400 Descending Montreal Center
Thu 11:01:40 PM 45.5167 -77.0667 113° Southeast 420 483 15,600 -1,750 Descending Montreal Center
Thu 11:02:40 PM 45.4833 -76.9500 112° Southeast 390 449 14,000 -1,800 Descending Montreal Center
Thu 11:03:40 PM 45.4500 -76.8000 108° East 360 414 12,000 -1,600 Descending Montreal Center
Thu 11:04:40 PM 45.4167 -76.6833 112° Southeast 310 357 10,800 -1,750 Descending Montreal Center
Thu 11:05:40 PM 45.3833 -76.5833 115° Southeast 280 322 8,500 -2,200 Descending Montreal Center
Thu 11:06:40 PM 45.3500 -76.5000 120° Southeast 280 322 6,400 -2,050 Descending Montreal Center
Thu 11:07:40 PM 45.3167 -76.3667 110° East 280 322 4,400 -1,200 Descending Montreal Center
Thu 11:08:40 PM 45.3000 -76.3000 110° East 230 265 4,000 -250 Descending Montreal Center
Thu 11:09:40 PM 45.2833 -76.2333 110° East 170 196 3,900 -650 Descending Montreal Center
Thu 11:10:40 PM 45.2833 -76.1667 90° East 160 184 2,700 -1,200 Descending Montreal Center

Login

Don't have an account? Register now (free) for customized features, flight alerts, and more!